createdAt,value
2022-11-02T00:02:36.290Z,47.60
2022-11-02T00:07:36.389Z,47.60
2022-11-02T00:12:36.211Z,47.70
2022-11-02T00:17:36.381Z,47.70
2022-11-02T00:22:36.080Z,46.80
2022-11-02T00:27:36.334Z,46.80
2022-11-02T00:32:36.123Z,47.70
2022-11-02T00:37:36.326Z,47.70
2022-11-02T00:42:36.154Z,48.00
2022-11-02T00:47:36.294Z,48.00
2022-11-02T00:52:36.429Z,47.90
2022-11-02T00:57:36.088Z,47.90
2022-11-02T01:07:36.554Z,46.20
2022-11-02T01:12:36.339Z,51.40
2022-11-02T01:17:36.213Z,51.40
2022-11-02T01:22:36.132Z,64.50
2022-11-02T01:27:36.167Z,64.50
2022-11-02T01:32:36.114Z,56.80
2022-11-02T01:37:36.452Z,56.80
2022-11-02T01:42:36.278Z,52.80
2022-11-02T01:47:36.087Z,52.80
2022-11-02T01:52:36.252Z,53.20
2022-11-02T01:57:36.288Z,53.20
2022-11-02T02:02:36.383Z,62.90
2022-11-02T02:07:36.154Z,62.90
2022-11-02T02:12:36.303Z,52.90
2022-11-02T02:17:36.109Z,52.90
2022-11-02T02:27:36.349Z,54.80
2022-11-02T02:32:36.368Z,54.80
2022-11-02T02:37:36.166Z,54.80
2022-11-02T02:42:36.149Z,56.20
2022-11-02T02:47:36.259Z,56.20
2022-11-02T02:52:36.357Z,53.80
2022-11-02T02:57:36.189Z,53.80
2022-11-02T03:02:36.278Z,51.10
2022-11-02T03:07:36.183Z,51.10
2022-11-02T03:12:36.321Z,52.20
2022-11-02T03:17:36.672Z,52.20
2022-11-02T03:22:36.192Z,50.10
2022-11-02T03:27:36.425Z,50.10
2022-11-02T03:32:36.126Z,50.80
2022-11-02T03:37:36.414Z,50.80
2022-11-02T03:42:36.244Z,52.30
2022-11-02T03:47:36.366Z,52.30
2022-11-02T03:52:36.203Z,55.00
2022-11-02T03:57:36.184Z,55.00
2022-11-02T04:02:36.280Z,51.90
2022-11-02T04:07:36.188Z,51.90
2022-11-02T04:12:36.455Z,54.60
2022-11-02T04:17:36.269Z,54.60
2022-11-02T04:22:36.491Z,52.80
2022-11-02T04:27:36.207Z,52.80
2022-11-02T04:37:36.768Z,50.50
2022-11-02T04:42:36.332Z,53.40
2022-11-02T04:47:36.488Z,53.40
2022-11-02T04:57:36.276Z,63.20
2022-11-02T05:02:36.485Z,62.60
2022-11-02T05:07:36.211Z,62.60
2022-11-02T05:12:36.223Z,58.50
2022-11-02T05:17:36.427Z,58.50
2022-11-02T05:22:36.189Z,72.00
2022-11-02T05:27:36.238Z,72.00
2022-11-02T05:32:36.519Z,69.90
2022-11-02T05:37:36.354Z,69.90
2022-11-02T05:42:36.501Z,62.40
2022-11-02T05:47:36.316Z,62.40
2022-11-02T05:52:36.224Z,59.80
2022-11-02T05:57:36.290Z,59.80
2022-11-02T06:02:36.425Z,60.40
2022-11-02T06:12:36.658Z,57.30
2022-11-02T06:17:36.245Z,57.30
2022-11-02T06:22:36.375Z,58.10
2022-11-02T06:27:36.514Z,58.10
2022-11-02T06:32:36.307Z,63.20
2022-11-02T06:37:36.457Z,63.20
2022-11-02T06:42:44.909Z,61.00
2022-11-02T06:47:36.260Z,61.00
2022-11-02T06:52:36.259Z,61.30
2022-11-02T06:57:36.428Z,61.30
2022-11-02T07:02:36.619Z,63.10
2022-11-02T07:07:36.372Z,63.10
2022-11-02T07:12:36.282Z,63.30
2022-11-02T07:17:36.373Z,63.30
2022-11-02T07:22:36.510Z,69.20
2022-11-02T07:27:36.355Z,69.20
2022-11-02T07:32:36.453Z,66.10
2022-11-02T07:37:36.617Z,66.10
2022-11-02T07:42:36.268Z,67.20
2022-11-02T07:47:36.287Z,67.20
2022-11-02T07:52:36.274Z,65.40
2022-11-02T07:57:36.303Z,65.40
2022-11-02T08:02:36.309Z,66.50
2022-11-02T08:07:36.315Z,66.50
2022-11-02T08:12:36.265Z,66.00
2022-11-02T08:17:36.495Z,66.00
2022-11-02T08:22:36.633Z,65.60
2022-11-02T08:27:36.451Z,65.60
2022-11-02T08:32:36.723Z,65.90
2022-11-02T08:37:36.271Z,65.90
2022-11-02T08:42:36.578Z,64.30
2022-11-02T08:47:36.331Z,64.30
2022-11-02T08:52:40.478Z,54.80
2022-11-02T08:57:36.389Z,54.80
2022-11-02T09:02:36.681Z,52.00
2022-11-02T09:07:36.324Z,52.00
2022-11-02T09:12:36.336Z,54.80
2022-11-02T09:17:36.625Z,54.80
2022-11-02T09:22:36.459Z,60.10
2022-11-02T09:27:36.332Z,60.10
2022-11-02T09:32:36.371Z,45.60
2022-11-02T09:37:36.619Z,45.60
2022-11-02T09:42:36.423Z,46.30
2022-11-02T09:48:15.261Z,46.30
2022-11-02T09:52:36.316Z,196.80
2022-11-02T09:57:36.474Z,196.80
2022-11-02T10:02:36.711Z,140.10
2022-11-02T10:07:36.447Z,140.10
2022-11-02T10:12:36.345Z,42.80
2022-11-02T10:17:36.357Z,42.80
2022-11-02T10:22:36.334Z,48.80
2022-11-02T10:27:36.413Z,48.80
2022-11-02T10:37:36.647Z,42.70
2022-11-02T10:42:36.500Z,43.50
2022-11-02T10:47:36.669Z,43.50
2022-11-02T10:52:36.513Z,46.10
2022-11-02T10:57:36.665Z,46.10
2022-11-02T11:02:36.376Z,48.80
2022-11-02T11:07:36.588Z,48.80
2022-11-02T11:12:36.696Z,46.90
2022-11-02T11:22:36.710Z,47.00
2022-11-02T11:32:36.689Z,45.80
2022-11-02T11:37:36.520Z,45.80
2022-11-02T11:42:36.685Z,47.10
2022-11-02T11:47:36.430Z,47.10
2022-11-02T11:52:36.622Z,50.40
2022-11-02T12:02:42.836Z,50.10
2022-11-02T12:07:36.400Z,50.10
2022-11-02T12:12:36.564Z,48.90
2022-11-02T12:17:36.738Z,48.90
2022-11-02T12:22:36.395Z,52.10
2022-11-02T12:27:36.539Z,52.10
2022-11-02T12:32:36.462Z,46.80
2022-11-02T12:42:39.245Z,47.30
2022-11-02T12:47:36.625Z,47.30
2022-11-02T12:52:36.448Z,47.90
2022-11-02T12:57:36.432Z,47.90
2022-11-02T13:02:36.451Z,43.70
2022-11-02T13:07:36.460Z,43.70
2022-11-02T13:12:36.447Z,45.00
2022-11-02T13:17:36.435Z,45.00
2022-11-02T13:22:36.782Z,47.70
2022-11-02T13:27:37.570Z,47.70
2022-11-02T13:32:36.648Z,44.40
2022-11-02T13:37:36.779Z,44.40
2022-11-02T13:42:36.411Z,44.70
2022-11-02T13:52:36.834Z,44.60
2022-11-02T13:57:36.697Z,44.60
2022-11-02T14:02:36.585Z,48.40
2022-11-02T14:07:36.492Z,48.40
2022-11-02T14:12:36.520Z,46.90
2022-11-02T14:17:36.488Z,46.90
2022-11-02T14:22:36.777Z,46.50
2022-11-02T14:27:36.485Z,46.50
2022-11-02T14:37:36.527Z,48.20
2022-11-02T14:42:36.478Z,45.50
2022-11-02T14:47:36.495Z,45.50
2022-11-02T14:52:36.504Z,45.30
2022-11-02T14:57:36.629Z,45.30
2022-11-02T15:02:40.320Z,44.50
2022-11-02T15:07:36.619Z,44.50
2022-11-02T15:12:36.621Z,45.70
2022-11-02T15:17:36.487Z,45.70
2022-11-02T15:22:36.791Z,43.80
2022-11-02T15:27:36.767Z,43.80
2022-11-02T15:32:36.555Z,43.50
2022-11-02T15:37:50.340Z,43.50
2022-11-02T15:42:36.571Z,45.70
2022-11-02T15:47:36.698Z,45.70
2022-11-02T15:57:36.929Z,73.30
2022-11-02T16:02:36.518Z,46.90
2022-11-02T16:07:49.872Z,46.90
2022-11-02T16:12:36.798Z,48.90
2022-11-02T16:17:36.562Z,48.90
2022-11-02T16:27:37.050Z,44.20
2022-11-02T16:32:36.718Z,50.70
2022-11-02T16:37:36.553Z,50.70
2022-11-02T16:42:36.517Z,185.10
2022-11-02T16:47:36.744Z,185.10
2022-11-02T16:52:36.567Z,201.00
2022-11-02T16:57:36.634Z,201.00
2022-11-02T17:02:36.863Z,840.50
2022-11-02T17:07:36.962Z,840.50
2022-11-02T17:12:36.664Z,938.80
2022-11-02T17:17:36.553Z,938.80
2022-11-02T17:22:37.099Z,890.60
2022-11-02T17:27:39.477Z,890.60
2022-11-02T17:32:37.445Z,747.80
2022-11-02T17:37:36.694Z,747.80
2022-11-02T17:42:36.779Z,951.90
2022-11-02T17:47:36.880Z,951.90
2022-11-02T17:57:37.138Z,948.70
2022-11-02T18:02:37.018Z,970.00
2022-11-02T18:07:37.128Z,970.00
2022-11-02T18:12:36.699Z,965.80
2022-11-02T18:17:36.876Z,965.80
2022-11-02T18:22:36.886Z,986.20
2022-11-02T18:27:36.649Z,986.20
2022-11-02T18:37:36.929Z,972.70
2022-11-02T18:42:37.176Z,959.10
2022-11-02T18:47:36.988Z,959.10
2022-11-02T18:52:37.574Z,971.50
2022-11-02T18:57:36.882Z,971.50
2022-11-02T19:02:36.741Z,967.00
2022-11-02T19:07:36.731Z,967.00
2022-11-02T19:12:36.868Z,966.50
2022-11-02T19:17:36.698Z,966.50
2022-11-02T19:22:37.042Z,971.50
2022-11-02T19:27:36.769Z,971.50
2022-11-02T19:32:36.935Z,972.40
2022-11-02T19:37:36.784Z,972.40
2022-11-02T19:42:37.024Z,967.10
2022-11-02T19:47:36.850Z,967.10
2022-11-02T19:52:37.638Z,980.60
2022-11-02T19:57:37.141Z,980.60
2022-11-02T20:02:37.225Z,983.10
2022-11-02T20:07:37.208Z,983.10
2022-11-02T20:12:36.957Z,989.10
2022-11-02T20:17:51.996Z,989.10
2022-11-02T20:22:36.871Z,990.30
2022-11-02T20:27:36.642Z,990.30
2022-11-02T20:32:36.949Z,991.10
2022-11-02T20:37:37.086Z,991.10
2022-11-02T20:42:36.945Z,982.90
2022-11-02T20:47:37.067Z,982.90
2022-11-02T20:52:37.743Z,977.90
2022-11-02T20:57:36.663Z,977.90
2022-11-02T21:02:36.933Z,980.20
2022-11-02T21:07:37.051Z,980.20
2022-11-02T21:12:37.102Z,982.30
2022-11-02T21:22:36.787Z,982.50
2022-11-02T21:27:37.109Z,982.50
2022-11-02T21:32:36.878Z,989.30
2022-11-02T21:37:36.696Z,989.30
2022-11-02T21:42:37.027Z,987.60
2022-11-02T21:47:36.873Z,987.60
2022-11-02T21:52:37.875Z,998.20
2022-11-02T21:57:36.716Z,998.20
2022-11-02T22:02:37.035Z,999.90
2022-11-02T22:07:36.813Z,999.90
2022-11-02T22:12:37.175Z,961.30
2022-11-02T22:17:49.328Z,961.30
2022-11-02T22:22:36.887Z,992.60
2022-11-02T22:27:36.709Z,992.60
2022-11-02T22:32:36.885Z,994.60
2022-11-02T22:37:37.028Z,994.60
2022-11-02T22:42:39.801Z,980.20
2022-11-02T22:47:37.025Z,980.20
2022-11-02T22:52:36.729Z,879.60
2022-11-02T22:57:36.956Z,879.60
2022-11-02T23:02:36.769Z,957.30
2022-11-02T23:07:36.773Z,957.30
2022-11-02T23:12:36.743Z,929.80
2022-11-02T23:17:37.171Z,929.80
2022-11-02T23:22:36.739Z,938.00
2022-11-02T23:27:36.672Z,938.00
2022-11-02T23:32:36.707Z,917.40
2022-11-02T23:37:36.720Z,917.40
2022-11-02T23:42:36.683Z,917.40
2022-11-02T23:47:36.724Z,917.40
2022-11-02T23:52:36.928Z,703.70
2022-11-02T23:57:36.744Z,703.70
